Terminal Aerodrome Forecast
Issued by NWS

Home | Current Version | Previous Version | Text Only | Print | Product List | Glossary On
Versions: 1 2 3 4 5 6 7 8 9 10 11 12 13 14 15 16
000
FTUS45 KGJT 172050 AAA
TAFASE
TAF AMD
KASE 172050Z 1721/1818 34010G16KT P6SM VCTS BKN100CB
      TEMPO 1721/1723 VRB12G20KT -TSRA
     FM180200 21006KT P6SM SCT200
     FM180600 20006KT P6SM SKC=

USA.gov is the U.S. government's official web portal to all federal, state and local government web resources and services.